sensor_id;sensor_type;location;lat;lon;timestamp;pressure;altitude;pressure_sealevel;temperature;humidity
59971;BME280;45825;45.434;9.116;2023-06-24T00:01:25;100343.75;;;26.73;26.55
59971;BME280;45825;45.434;9.116;2023-06-24T00:03:50;100335.72;;;26.80;26.41
59971;BME280;45825;45.434;9.116;2023-06-24T00:06:21;100333.50;;;26.83;26.38
59971;BME280;45825;45.434;9.116;2023-06-24T00:08:50;100331.81;;;26.45;26.26
59971;BME280;45825;45.434;9.116;2023-06-24T00:11:15;100334.31;;;26.62;26.61
59971;BME280;45825;45.434;9.116;2023-06-24T00:13:41;100345.75;;;26.64;26.65
59971;BME280;45825;45.434;9.116;2023-06-24T00:16:07;100340.41;;;26.71;26.76
59971;BME280;45825;45.434;9.116;2023-06-24T00:18:34;100332.75;;;26.38;26.62
59971;BME280;45825;45.434;9.116;2023-06-24T00:20:59;100350.59;;;26.54;27.14
59971;BME280;45825;45.434;9.116;2023-06-24T00:23:27;100346.13;;;26.61;27.02
59971;BME280;45825;45.434;9.116;2023-06-24T00:25:53;100354.56;;;26.58;26.91
59971;BME280;45825;45.434;9.116;2023-06-24T00:28:19;100348.34;;;26.12;27.52
59971;BME280;45825;45.434;9.116;2023-06-24T00:30:45;100353.41;;;26.30;27.61
59971;BME280;45825;45.434;9.116;2023-06-24T00:33:10;100353.13;;;26.40;27.56
59971;BME280;45825;45.434;9.116;2023-06-24T00:35:38;100351.72;;;26.44;27.07
59971;BME280;45825;45.434;9.116;2023-06-24T00:38:03;100353.56;;;26.14;27.08
59971;BME280;45825;45.434;9.116;2023-06-24T00:40:29;100351.25;;;26.26;27.17
59971;BME280;45825;45.434;9.116;2023-06-24T00:42:54;100349.31;;;26.34;27.03
59971;BME280;45825;45.434;9.116;2023-06-24T00:45:21;100346.81;;;26.33;27.25
59971;BME280;45825;45.434;9.116;2023-06-24T00:47:47;100337.47;;;25.90;27.19
59971;BME280;45825;45.434;9.116;2023-06-24T00:50:12;100342.97;;;26.12;27.26
59971;BME280;45825;45.434;9.116;2023-06-24T00:52:38;100341.03;;;26.21;27.49
59971;BME280;45825;45.434;9.116;2023-06-24T00:55:07;100341.97;;;26.28;27.16
59971;BME280;45825;45.434;9.116;2023-06-24T00:57:33;100351.88;;;25.98;27.08
59971;BME280;45825;45.434;9.116;2023-06-24T00:59:59;100353.91;;;26.11;27.28
59971;BME280;45825;45.434;9.116;2023-06-24T01:02:24;100353.31;;;26.24;26.84
59971;BME280;45825;45.434;9.116;2023-06-24T01:04:53;100351.56;;;26.31;26.68
59971;BME280;45825;45.434;9.116;2023-06-24T01:07:18;100344.47;;;26.15;26.51
59971;BME280;45825;45.434;9.116;2023-06-24T01:09:44;100346.13;;;26.16;26.68
59971;BME280;45825;45.434;9.116;2023-06-24T01:12:09;100344.84;;;26.27;26.78
59971;BME280;45825;45.434;9.116;2023-06-24T01:14:35;100345.50;;;26.29;26.92
59971;BME280;45825;45.434;9.116;2023-06-24T01:17:14;100344.03;;;26.26;26.62
59971;BME280;45825;45.434;9.116;2023-06-24T01:25:18;100340.69;;;26.24;27.06
59971;BME280;45825;45.434;9.116;2023-06-24T01:34:01;100343.81;;;26.13;26.92
59971;BME280;45825;45.434;9.116;2023-06-24T01:36:28;100353.47;;;26.22;26.99
59971;BME280;45825;45.434;9.116;2023-06-24T01:39:00;100357.44;;;25.96;26.92
59971;BME280;45825;45.434;9.116;2023-06-24T01:41:31;100365.94;;;26.08;27.56
59971;BME280;45825;45.434;9.116;2023-06-24T01:43:57;100360.25;;;26.18;26.96
59971;BME280;45825;45.434;9.116;2023-06-24T01:46:25;100355.28;;;26.30;26.98
59971;BME280;45825;45.434;9.116;2023-06-24T01:48:54;100358.66;;;26.08;26.77
59971;BME280;45825;45.434;9.116;2023-06-24T01:51:22;100363.22;;;26.08;26.81
59971;BME280;45825;45.434;9.116;2023-06-24T01:53:58;100367.81;;;26.22;26.60
59971;BME280;45825;45.434;9.116;2023-06-24T01:56:26;100364.75;;;26.26;26.67
59971;BME280;45825;45.434;9.116;2023-06-24T01:58:55;100364.25;;;26.22;26.89
59971;BME280;45825;45.434;9.116;2023-06-24T02:01:23;100359.13;;;25.97;26.80
59971;BME280;45825;45.434;9.116;2023-06-24T02:03:49;100360.81;;;26.13;27.03
59971;BME280;45825;45.434;9.116;2023-06-24T02:06:16;100357.94;;;26.15;26.87
59971;BME280;45825;45.434;9.116;2023-06-24T02:08:43;100362.47;;;26.14;26.97
59971;BME280;45825;45.434;9.116;2023-06-24T02:11:09;100355.56;;;25.66;27.31
59971;BME280;45825;45.434;9.116;2023-06-24T02:13:35;100355.84;;;25.87;27.62
59971;BME280;45825;45.434;9.116;2023-06-24T02:16:03;100358.09;;;25.98;27.23
59971;BME280;45825;45.434;9.116;2023-06-24T02:18:32;100356.44;;;25.97;27.19
59971;BME280;45825;45.434;9.116;2023-06-24T02:20:59;100347.72;;;25.57;27.82
59971;BME280;45825;45.434;9.116;2023-06-24T02:23:25;100351.09;;;25.59;28.01
59971;BME280;45825;45.434;9.116;2023-06-24T02:25:51;100354.53;;;25.67;27.85
59971;BME280;45825;45.434;9.116;2023-06-24T02:28:18;100353.63;;;25.75;28.05
59971;BME280;45825;45.434;9.116;2023-06-24T02:30:43;100346.72;;;25.73;28.19
59971;BME280;45825;45.434;9.116;2023-06-24T02:33:10;100350.06;;;25.36;28.44
59971;BME280;45825;45.434;9.116;2023-06-24T02:35:37;100351.16;;;25.50;28.35
59971;BME280;45825;45.434;9.116;2023-06-24T02:38:02;100347.91;;;25.55;28.34
59971;BME280;45825;45.434;9.116;2023-06-24T02:40:28;100346.34;;;25.61;28.53
59971;BME280;45825;45.434;9.116;2023-06-24T02:42:54;100340.06;;;25.22;28.57
59971;BME280;45825;45.434;9.116;2023-06-24T02:45:20;100349.78;;;25.46;28.75
59971;BME280;45825;45.434;9.116;2023-06-24T02:47:46;100356.16;;;25.53;28.50
59971;BME280;45825;45.434;9.116;2023-06-24T02:50:12;100355.44;;;25.60;28.60
59971;BME280;45825;45.434;9.116;2023-06-24T02:52:39;100351.53;;;25.62;28.43
59971;BME280;45825;45.434;9.116;2023-06-24T02:55:05;100350.75;;;25.30;28.52
59971;BME280;45825;45.434;9.116;2023-06-24T02:57:32;100340.59;;;25.41;28.52
59971;BME280;45825;45.434;9.116;2023-06-24T02:59:58;100353.66;;;25.52;28.45
59971;BME280;45825;45.434;9.116;2023-06-24T03:02:24;100358.50;;;25.57;28.75
59971;BME280;45825;45.434;9.116;2023-06-24T03:04:50;100354.56;;;25.21;28.60
59971;BME280;45825;45.434;9.116;2023-06-24T03:07:16;100361.34;;;25.32;29.20
59971;BME280;45825;45.434;9.116;2023-06-24T03:09:45;100362.25;;;25.47;29.24
59971;BME280;45825;45.434;9.116;2023-06-24T03:12:11;100365.44;;;25.51;29.13
59971;BME280;45825;45.434;9.116;2023-06-24T03:14:36;100359.03;;;25.52;28.79
59971;BME280;45825;45.434;9.116;2023-06-24T03:17:02;100368.00;;;24.97;29.22
59971;BME280;45825;45.434;9.116;2023-06-24T03:19:27;100373.41;;;25.21;29.10
59971;BME280;45825;45.434;9.116;2023-06-24T03:21:53;100367.81;;;25.22;28.98
59971;BME280;45825;45.434;9.116;2023-06-24T03:24:18;100376.13;;;25.13;29.59
59971;BME280;45825;45.434;9.116;2023-06-24T03:26:43;100373.72;;;24.94;29.64
59971;BME280;45825;45.434;9.116;2023-06-24T03:29:09;100380.94;;;24.94;30.03
59971;BME280;45825;45.434;9.116;2023-06-24T03:31:34;100380.88;;;25.10;29.88
59971;BME280;45825;45.434;9.116;2023-06-24T03:34:00;100393.91;;;25.22;29.71
59971;BME280;45825;45.434;9.116;2023-06-24T03:36:25;100387.31;;;25.24;29.50
59971;BME280;45825;45.434;9.116;2023-06-24T03:38:50;100392.63;;;24.69;30.30
59971;BME280;45825;45.434;9.116;2023-06-24T03:41:16;100395.13;;;24.88;30.30
59971;BME280;45825;45.434;9.116;2023-06-24T03:43:41;100393.88;;;24.99;30.53
59971;BME280;45825;45.434;9.116;2023-06-24T03:46:10;100395.75;;;24.98;30.19
59971;BME280;45825;45.434;9.116;2023-06-24T03:48:36;100398.50;;;24.73;30.49
59971;BME280;45825;45.434;9.116;2023-06-24T03:51:01;100404.81;;;24.57;31.07
59971;BME280;45825;45.434;9.116;2023-06-24T03:53:26;100413.81;;;24.81;30.87
59971;BME280;45825;45.434;9.116;2023-06-24T03:55:51;100407.03;;;24.93;30.71
59971;BME280;45825;45.434;9.116;2023-06-24T03:58:17;100403.94;;;25.05;30.82
59971;BME280;45825;45.434;9.116;2023-06-24T04:00:42;100402.50;;;24.46;31.27
59971;BME280;45825;45.434;9.116;2023-06-24T04:03:09;100411.13;;;24.73;31.25
59971;BME280;45825;45.434;9.116;2023-06-24T04:05:35;100408.22;;;24.91;31.29
59971;BME280;45825;45.434;9.116;2023-06-24T04:08:00;100418.09;;;24.99;31.30
59971;BME280;45825;45.434;9.116;2023-06-24T04:10:26;100410.81;;;25.07;31.09
59971;BME280;45825;45.434;9.116;2023-06-24T04:12:51;100413.69;;;24.66;31.71
59971;BME280;45825;45.434;9.116;2023-06-24T04:15:16;100406.53;;;24.90;31.47
59971;BME280;45825;45.434;9.116;2023-06-24T04:17:42;100410.38;;;24.95;31.55
59971;BME280;45825;45.434;9.116;2023-06-24T04:20:07;100413.72;;;24.97;31.68
59971;BME280;45825;45.434;9.116;2023-06-24T04:22:34;100411.13;;;24.73;31.30
59971;BME280;45825;45.434;9.116;2023-06-24T04:25:00;100414.00;;;24.71;31.78
59971;BME280;45825;45.434;9.116;2023-06-24T04:27:25;100427.06;;;24.91;31.58
59971;BME280;45825;45.434;9.116;2023-06-24T04:29:50;100419.47;;;24.94;31.56
59971;BME280;45825;45.434;9.116;2023-06-24T04:32:16;100421.69;;;24.91;31.91
59971;BME280;45825;45.434;9.116;2023-06-24T04:34:41;100428.22;;;24.40;33.43
59971;BME280;45825;45.434;9.116;2023-06-24T04:37:06;100432.31;;;24.67;32.81
59971;BME280;45825;45.434;9.116;2023-06-24T04:39:32;100439.53;;;24.83;32.76
59971;BME280;45825;45.434;9.116;2023-06-24T04:41:57;100435.44;;;24.96;32.76
59971;BME280;45825;45.434;9.116;2023-06-24T04:44:22;100436.03;;;25.06;32.51
59971;BME280;45825;45.434;9.116;2023-06-24T04:46:47;100438.78;;;24.50;33.16
59971;BME280;45825;45.434;9.116;2023-06-24T04:49:13;100437.19;;;24.80;32.78
59971;BME280;45825;45.434;9.116;2023-06-24T04:51:38;100437.47;;;24.94;32.36
59971;BME280;45825;45.434;9.116;2023-06-24T04:54:05;100435.38;;;25.04;32.40
59971;BME280;45825;45.434;9.116;2023-06-24T04:56:31;100443.72;;;25.18;32.23
59971;BME280;45825;45.434;9.116;2023-06-24T04:58:56;100429.91;;;24.89;32.40
59971;BME280;45825;45.434;9.116;2023-06-24T05:01:22;100435.66;;;25.18;32.13
59971;BME280;45825;45.434;9.116;2023-06-24T05:03:47;100442.84;;;25.25;32.42
59971;BME280;45825;45.434;9.116;2023-06-24T05:06:12;100440.75;;;25.36;32.16
59971;BME280;45825;45.434;9.116;2023-06-24T05:08:38;100439.84;;;25.20;31.95
59971;BME280;45825;45.434;9.116;2023-06-24T05:11:03;100442.81;;;25.02;32.64
59971;BME280;45825;45.434;9.116;2023-06-24T05:13:29;100453.78;;;25.24;32.17
59971;BME280;45825;45.434;9.116;2023-06-24T05:15:54;100445.69;;;25.32;32.42
59971;BME280;45825;45.434;9.116;2023-06-24T05:18:19;100450.53;;;25.37;32.61
59971;BME280;45825;45.434;9.116;2023-06-24T05:20:44;100456.47;;;25.24;32.97
59971;BME280;45825;45.434;9.116;2023-06-24T05:23:10;100464.03;;;25.29;33.06
59971;BME280;45825;45.434;9.116;2023-06-24T05:25:35;100454.66;;;25.48;32.57
59971;BME280;45825;45.434;9.116;2023-06-24T05:28:01;100463.69;;;25.63;32.55
59971;BME280;45825;45.434;9.116;2023-06-24T05:30:26;100460.91;;;25.72;32.32
59971;BME280;45825;45.434;9.116;2023-06-24T05:32:51;100462.28;;;25.36;32.86
59971;BME280;45825;45.434;9.116;2023-06-24T05:35:16;100466.59;;;25.53;33.04
59971;BME280;45825;45.434;9.116;2023-06-24T05:37:42;100468.63;;;25.75;32.51
59971;BME280;45825;45.434;9.116;2023-06-24T05:40:08;100467.34;;;25.86;32.53
59971;BME280;45825;45.434;9.116;2023-06-24T05:42:34;100470.94;;;26.01;32.40
59971;BME280;45825;45.434;9.116;2023-06-24T05:45:00;100467.72;;;25.59;32.73
59971;BME280;45825;45.434;9.116;2023-06-24T05:47:25;100467.19;;;25.87;32.44
59971;BME280;45825;45.434;9.116;2023-06-24T05:49:50;100482.38;;;26.03;32.54
59971;BME280;45825;45.434;9.116;2023-06-24T05:52:16;100480.44;;;26.12;33.05
59971;BME280;45825;45.434;9.116;2023-06-24T05:54:41;100470.66;;;25.73;32.71
59971;BME280;45825;45.434;9.116;2023-06-24T05:57:06;100479.31;;;26.06;32.75
59971;BME280;45825;45.434;9.116;2023-06-24T05:59:35;100478.34;;;26.22;32.50
59971;BME280;45825;45.434;9.116;2023-06-24T06:02:00;100477.81;;;26.27;31.97
59971;BME280;45825;45.434;9.116;2023-06-24T06:04:27;100476.72;;;26.36;31.24
59971;BME280;45825;45.434;9.116;2023-06-24T06:06:52;100475.91;;;25.89;32.10
59971;BME280;45825;45.434;9.116;2023-06-24T06:09:18;100476.16;;;26.18;31.55
59971;BME280;45825;45.434;9.116;2023-06-24T06:11:43;100476.72;;;26.36;31.68
59971;BME280;45825;45.434;9.116;2023-06-24T06:14:08;100478.31;;;26.46;31.10
59971;BME280;45825;45.434;9.116;2023-06-24T06:16:34;100484.44;;;26.55;30.88
59971;BME280;45825;45.434;9.116;2023-06-24T06:18:59;100482.81;;;26.30;30.08
59971;BME280;45825;45.434;9.116;2023-06-24T06:21:24;100480.81;;;26.62;30.27
59971;BME280;45825;45.434;9.116;2023-06-24T06:23:50;100488.06;;;26.77;30.16
59971;BME280;45825;45.434;9.116;2023-06-24T06:26:15;100489.63;;;26.86;30.42
59971;BME280;45825;45.434;9.116;2023-06-24T06:28:40;100489.31;;;26.89;30.06
59971;BME280;45825;45.434;9.116;2023-06-24T06:31:06;100494.03;;;26.72;30.82
59971;BME280;45825;45.434;9.116;2023-06-24T06:33:31;100496.16;;;27.07;30.52
59971;BME280;45825;45.434;9.116;2023-06-24T06:35:56;100489.22;;;27.19;30.17
59971;BME280;45825;45.434;9.116;2023-06-24T06:38:22;100498.09;;;27.28;29.47
59971;BME280;45825;45.434;9.116;2023-06-24T06:40:47;100496.19;;;27.29;28.98
59971;BME280;45825;45.434;9.116;2023-06-24T06:43:12;100493.75;;;27.12;28.96
59971;BME280;45825;45.434;9.116;2023-06-24T06:45:37;100495.38;;;27.28;28.40
59971;BME280;45825;45.434;9.116;2023-06-24T06:48:03;100496.28;;;27.36;29.08
59971;BME280;45825;45.434;9.116;2023-06-24T06:50:32;100506.16;;;27.43;28.80
59971;BME280;45825;45.434;9.116;2023-06-24T06:52:57;100508.28;;;27.48;29.14
59971;BME280;45825;45.434;9.116;2023-06-24T06:55:23;100515.34;;;27.49;29.46
59971;BME280;45825;45.434;9.116;2023-06-24T06:57:48;100512.53;;;27.57;30.84
59971;BME280;45825;45.434;9.116;2023-06-24T07:00:13;100506.84;;;27.67;30.16
59971;BME280;45825;45.434;9.116;2023-06-24T07:02:39;100514.38;;;27.72;29.12
59971;BME280;45825;45.434;9.116;2023-06-24T07:05:04;100508.84;;;27.80;29.12
59971;BME280;45825;45.434;9.116;2023-06-24T07:07:30;100513.63;;;27.85;28.42
59971;BME280;45825;45.434;9.116;2023-06-24T07:09:55;100512.25;;;27.67;30.33
59971;BME280;45825;45.434;9.116;2023-06-24T07:12:21;100519.38;;;27.97;31.68
59971;BME280;45825;45.434;9.116;2023-06-24T07:14:49;100518.03;;;28.08;31.72
59971;BME280;45825;45.434;9.116;2023-06-24T07:17:14;100518.66;;;28.10;31.05
59971;BME280;45825;45.434;9.116;2023-06-24T07:19:39;100521.31;;;28.25;30.86
59971;BME280;45825;45.434;9.116;2023-06-24T07:22:05;100531.53;;;28.29;30.90
59971;BME280;45825;45.434;9.116;2023-06-24T07:24:30;100520.91;;;28.28;30.86
59971;BME280;45825;45.434;9.116;2023-06-24T07:26:55;100537.19;;;28.35;30.86
59971;BME280;45825;45.434;9.116;2023-06-24T07:29:21;100538.84;;;28.36;30.81
59971;BME280;45825;45.434;9.116;2023-06-24T07:31:46;100539.75;;;28.43;29.16
59971;BME280;45825;45.434;9.116;2023-06-24T07:34:11;100541.41;;;28.44;28.83
59971;BME280;45825;45.434;9.116;2023-06-24T07:36:36;100534.13;;;28.44;29.31
59971;BME280;45825;45.434;9.116;2023-06-24T07:39:02;100535.59;;;28.47;29.30
59971;BME280;45825;45.434;9.116;2023-06-24T07:41:27;100541.47;;;28.51;28.70
59971;BME280;45825;45.434;9.116;2023-06-24T07:43:53;100540.25;;;28.53;29.05
59971;BME280;45825;45.434;9.116;2023-06-24T07:46:18;100549.84;;;28.56;29.49
59971;BME280;45825;45.434;9.116;2023-06-24T07:48:43;100544.63;;;28.54;30.76
59971;BME280;45825;45.434;9.116;2023-06-24T07:51:09;100545.84;;;28.52;31.15
59971;BME280;45825;45.434;9.116;2023-06-24T07:53:34;100542.69;;;28.48;31.22
59971;BME280;45825;45.434;9.116;2023-06-24T07:55:59;100548.13;;;28.55;31.68
59971;BME280;45825;45.434;9.116;2023-06-24T07:58:25;100547.78;;;28.58;31.63
59971;BME280;45825;45.434;9.116;2023-06-24T08:00:50;100554.41;;;28.55;31.08
59971;BME280;45825;45.434;9.116;2023-06-24T08:03:15;100558.59;;;28.58;30.82
59971;BME280;45825;45.434;9.116;2023-06-24T08:05:41;100549.59;;;28.51;29.86
59971;BME280;45825;45.434;9.116;2023-06-24T08:08:08;100552.97;;;28.31;29.57
59971;BME280;45825;45.434;9.116;2023-06-24T08:10:33;100551.25;;;28.23;29.15
59971;BME280;45825;45.434;9.116;2023-06-24T08:12:59;100550.25;;;28.31;29.42
59971;BME280;45825;45.434;9.116;2023-06-24T08:15:24;100549.28;;;28.39;29.26
59971;BME280;45825;45.434;9.116;2023-06-24T08:17:53;100542.94;;;28.53;29.31
59971;BME280;45825;45.434;9.116;2023-06-24T08:20:22;100546.31;;;28.62;29.82
59971;BME280;45825;45.434;9.116;2023-06-24T08:22:48;100553.06;;;28.73;29.99
59971;BME280;45825;45.434;9.116;2023-06-24T08:25:13;100547.69;;;28.80;30.10
59971;BME280;45825;45.434;9.116;2023-06-24T08:27:39;100552.13;;;28.88;30.32
59971;BME280;45825;45.434;9.116;2023-06-24T08:30:05;100545.72;;;28.95;31.15
59971;BME280;45825;45.434;9.116;2023-06-24T08:32:31;100546.19;;;29.06;31.11
59971;BME280;45825;45.434;9.116;2023-06-24T08:34:56;100549.97;;;29.11;31.03
59971;BME280;45825;45.434;9.116;2023-06-24T08:37:21;100551.25;;;29.16;31.06
59971;BME280;45825;45.434;9.116;2023-06-24T08:39:47;100547.28;;;29.18;31.51
59971;BME280;45825;45.434;9.116;2023-06-24T08:42:12;100548.16;;;29.25;31.97
59971;BME280;45825;45.434;9.116;2023-06-24T08:44:37;100546.78;;;29.43;32.20
59971;BME280;45825;45.434;9.116;2023-06-24T08:47:03;100545.53;;;29.52;32.64
59971;BME280;45825;45.434;9.116;2023-06-24T08:49:30;100544.06;;;29.43;32.20
59971;BME280;45825;45.434;9.116;2023-06-24T08:51:59;100547.19;;;29.47;32.03
59971;BME280;45825;45.434;9.116;2023-06-24T08:54:25;100547.13;;;29.33;32.46
59971;BME280;45825;45.434;9.116;2023-06-24T08:56:52;100551.00;;;29.59;32.53
59971;BME280;45825;45.434;9.116;2023-06-24T08:59:18;100543.09;;;29.64;32.47
59971;BME280;45825;45.434;9.116;2023-06-24T09:01:46;100545.53;;;29.52;32.20
59971;BME280;45825;45.434;9.116;2023-06-24T09:04:12;100544.25;;;29.41;32.52
59971;BME280;45825;45.434;9.116;2023-06-24T09:06:37;100551.91;;;29.24;32.94
59971;BME280;45825;45.434;9.116;2023-06-24T09:09:02;100548.16;;;29.32;32.99
59971;BME280;45825;45.434;9.116;2023-06-24T09:11:28;100544.84;;;29.37;32.85
59971;BME280;45825;45.434;9.116;2023-06-24T09:13:57;100552.00;;;29.51;32.72
59971;BME280;45825;45.434;9.116;2023-06-24T09:16:24;100545.34;;;29.47;32.50
59971;BME280;45825;45.434;9.116;2023-06-24T09:18:49;100545.59;;;29.66;31.74
59971;BME280;45825;45.434;9.116;2023-06-24T09:21:26;100553.31;;;29.62;31.30
59971;BME280;45825;45.434;9.116;2023-06-24T09:23:55;100543.72;;;29.80;30.62
59971;BME280;45825;45.434;9.116;2023-06-24T09:26:24;100540.00;;;30.01;30.86
59971;BME280;45825;45.434;9.116;2023-06-24T09:28:51;100544.78;;;29.79;30.83
59971;BME280;45825;45.434;9.116;2023-06-24T09:31:17;100544.78;;;29.86;30.24
59971;BME280;45825;45.434;9.116;2023-06-24T09:33:42;100544.66;;;30.14;30.17
59971;BME280;45825;45.434;9.116;2023-06-24T09:36:11;100539.84;;;30.23;29.68
59971;BME280;45825;45.434;9.116;2023-06-24T09:38:38;100538.59;;;30.32;29.28
59971;BME280;45825;45.434;9.116;2023-06-24T09:41:06;100538.38;;;30.14;27.73
59971;BME280;45825;45.434;9.116;2023-06-24T09:43:35;100528.16;;;30.22;28.61
59971;BME280;45825;45.434;9.116;2023-06-24T09:46:03;100538.16;;;30.35;28.78
59971;BME280;45825;45.434;9.116;2023-06-24T09:48:29;100526.88;;;30.32;29.12
59971;BME280;45825;45.434;9.116;2023-06-24T09:50:59;100520.41;;;30.39;29.68
59971;BME280;45825;45.434;9.116;2023-06-24T09:53:25;100529.84;;;30.30;29.64
59971;BME280;45825;45.434;9.116;2023-06-24T09:55:50;100527.31;;;30.29;29.86
59971;BME280;45825;45.434;9.116;2023-06-24T09:58:17;100524.81;;;30.41;29.82
59971;BME280;45825;45.434;9.116;2023-06-24T10:00:43;100527.09;;;30.50;29.52
59971;BME280;45825;45.434;9.116;2023-06-24T10:03:09;100530.88;;;30.36;30.37
59971;BME280;45825;45.434;9.116;2023-06-24T10:05:35;100518.75;;;30.25;31.19
59971;BME280;45825;45.434;9.116;2023-06-24T10:08:02;100517.91;;;30.45;31.82
59971;BME280;45825;45.434;9.116;2023-06-24T10:10:29;100513.06;;;30.60;30.71
59971;BME280;45825;45.434;9.116;2023-06-24T10:12:55;100512.00;;;30.82;30.15
59971;BME280;45825;45.434;9.116;2023-06-24T10:15:21;100512.25;;;30.39;30.10
59971;BME280;45825;45.434;9.116;2023-06-24T10:17:47;100517.47;;;30.55;30.11
59971;BME280;45825;45.434;9.116;2023-06-24T10:20:12;100507.00;;;30.72;30.01
59971;BME280;45825;45.434;9.116;2023-06-24T10:22:38;100506.19;;;30.58;30.22
59971;BME280;45825;45.434;9.116;2023-06-24T10:25:06;100496.78;;;30.60;30.14
59971;BME280;45825;45.434;9.116;2023-06-24T10:27:39;100508.28;;;30.69;30.30
59971;BME280;45825;45.434;9.116;2023-06-24T10:30:04;100505.47;;;30.96;30.14
59971;BME280;45825;45.434;9.116;2023-06-24T10:32:40;100497.06;;;31.11;30.01
59971;BME280;45825;45.434;9.116;2023-06-24T10:35:06;100497.63;;;31.27;30.53
59971;BME280;45825;45.434;9.116;2023-06-24T10:37:33;100496.03;;;31.05;30.17
59971;BME280;45825;45.434;9.116;2023-06-24T10:39:58;100500.00;;;31.03;30.29
59971;BME280;45825;45.434;9.116;2023-06-24T10:42:41;100495.56;;;31.15;30.43
59971;BME280;45825;45.434;9.116;2023-06-24T10:45:17;100486.03;;;31.45;31.17
59971;BME280;45825;45.434;9.116;2023-06-24T10:50:16;100480.31;;;31.60;30.42
59971;BME280;45825;45.434;9.116;2023-06-24T10:52:44;100488.50;;;31.78;29.30
59971;BME280;45825;45.434;9.116;2023-06-24T10:55:10;100477.69;;;31.72;29.24
59971;BME280;45825;45.434;9.116;2023-06-24T10:57:35;100473.25;;;31.77;29.16
59971;BME280;45825;45.434;9.116;2023-06-24T11:00:02;100465.06;;;31.52;29.62
59971;BME280;45825;45.434;9.116;2023-06-24T11:02:28;100465.97;;;32.03;29.10
59971;BME280;45825;45.434;9.116;2023-06-24T11:05:00;100460.47;;;32.29;28.40
59971;BME280;45825;45.434;9.116;2023-06-24T11:07:28;100451.63;;;32.15;29.20
59971;BME280;45825;45.434;9.116;2023-06-24T11:10:01;100455.78;;;32.17;28.52
59971;BME280;45825;45.434;9.116;2023-06-24T11:12:29;100455.66;;;32.31;28.09
59971;BME280;45825;45.434;9.116;2023-06-24T11:14:56;100454.00;;;32.49;28.03
59971;BME280;45825;45.434;9.116;2023-06-24T11:17:22;100447.13;;;32.65;27.50
59971;BME280;45825;45.434;9.116;2023-06-24T11:19:48;100447.50;;;32.31;27.40
59971;BME280;45825;45.434;9.116;2023-06-24T11:22:13;100444.97;;;32.29;27.75
59971;BME280;45825;45.434;9.116;2023-06-24T11:24:38;100435.41;;;32.64;26.62
59971;BME280;45825;45.434;9.116;2023-06-24T11:27:05;100435.50;;;32.57;25.40
59971;BME280;45825;45.434;9.116;2023-06-24T11:29:31;100435.63;;;32.81;24.34
59971;BME280;45825;45.434;9.116;2023-06-24T11:31:57;100430.69;;;32.90;24.78
59971;BME280;45825;45.434;9.116;2023-06-24T11:34:22;100434.59;;;33.13;26.00
59971;BME280;45825;45.434;9.116;2023-06-24T11:36:48;100440.78;;;33.20;24.35
59971;BME280;45825;45.434;9.116;2023-06-24T11:39:24;100429.41;;;33.23;25.00
59971;BME280;45825;45.434;9.116;2023-06-24T11:41:51;100429.94;;;33.01;24.91
59971;BME280;45825;45.434;9.116;2023-06-24T11:44:20;100425.44;;;33.07;24.75
59971;BME280;45825;45.434;9.116;2023-06-24T11:46:46;100415.63;;;33.06;24.06
59971;BME280;45825;45.434;9.116;2023-06-24T11:49:11;100419.78;;;33.21;24.54
59971;BME280;45825;45.434;9.116;2023-06-24T11:51:48;100420.84;;;33.08;24.10
59971;BME280;45825;45.434;9.116;2023-06-24T11:54:16;100415.13;;;32.97;24.68
59971;BME280;45825;45.434;9.116;2023-06-24T11:56:43;100411.03;;;33.19;24.89
59971;BME280;45825;45.434;9.116;2023-06-24T12:01:43;100404.16;;;33.70;23.31
59971;BME280;45825;45.434;9.116;2023-06-24T12:04:14;100406.53;;;33.79;23.40
59971;BME280;45825;45.434;9.116;2023-06-24T12:06:43;100405.03;;;33.40;23.07
59971;BME280;45825;45.434;9.116;2023-06-24T12:09:09;100394.41;;;33.08;23.42
59971;BME280;45825;45.434;9.116;2023-06-24T12:11:34;100399.53;;;33.16;23.63
59971;BME280;45825;45.434;9.116;2023-06-24T12:14:00;100393.25;;;33.16;24.13
59971;BME280;45825;45.434;9.116;2023-06-24T12:16:25;100389.66;;;33.46;24.17
59971;BME280;45825;45.434;9.116;2023-06-24T12:18:51;100391.03;;;33.37;24.15
59971;BME280;45825;45.434;9.116;2023-06-24T12:21:17;100391.22;;;33.54;24.27
59971;BME280;45825;45.434;9.116;2023-06-24T12:23:42;100386.22;;;33.39;23.88
59971;BME280;45825;45.434;9.116;2023-06-24T12:26:07;100385.31;;;33.14;23.63
59971;BME280;45825;45.434;9.116;2023-06-24T12:28:33;100376.28;;;33.02;23.54
59971;BME280;45825;45.434;9.116;2023-06-24T12:30:58;100380.41;;;33.05;24.02
59971;BME280;45825;45.434;9.116;2023-06-24T12:33:23;100378.38;;;33.00;23.62
59971;BME280;45825;45.434;9.116;2023-06-24T12:35:49;100365.50;;;32.95;23.93
59971;BME280;45825;45.434;9.116;2023-06-24T12:38:14;100371.44;;;33.16;24.46
59971;BME280;45825;45.434;9.116;2023-06-24T12:40:41;100355.91;;;33.05;24.29
59971;BME280;45825;45.434;9.116;2023-06-24T12:43:06;100369.53;;;33.05;23.95
59971;BME280;45825;45.434;9.116;2023-06-24T12:45:31;100357.16;;;33.33;24.67
59971;BME280;45825;45.434;9.116;2023-06-24T12:47:57;100348.78;;;33.46;23.94
59971;BME280;45825;45.434;9.116;2023-06-24T12:50:22;100350.03;;;33.43;24.05
59971;BME280;45825;45.434;9.116;2023-06-24T12:52:47;100356.19;;;33.27;23.71
59971;BME280;45825;45.434;9.116;2023-06-24T12:55:13;100347.72;;;32.93;24.29
59971;BME280;45825;45.434;9.116;2023-06-24T12:57:38;100347.53;;;33.18;24.02
59971;BME280;45825;45.434;9.116;2023-06-24T13:00:07;100343.75;;;33.19;24.25
59971;BME280;45825;45.434;9.116;2023-06-24T13:02:34;100339.84;;;33.27;23.88